sensor_id;sensor_type;location;lat;lon;timestamp;pressure;altitude;pressure_sealevel;temperature;humidity
35519;BME280;21627;48.216;16.482;2023-02-20T00:01:38;100657.66;;;3.93;100.00
35519;BME280;21627;48.216;16.482;2023-02-20T00:04:05;100655.84;;;3.90;100.00
35519;BME280;21627;48.216;16.482;2023-02-20T00:06:32;100647.28;;;3.90;100.00
35519;BME280;21627;48.216;16.482;2023-02-20T00:08:59;100622.69;;;3.73;100.00
35519;BME280;21627;48.216;16.482;2023-02-20T00:11:26;100636.81;;;3.84;100.00
35519;BME280;21627;48.216;16.482;2023-02-20T00:13:54;100630.56;;;3.77;100.00
35519;BME280;21627;48.216;16.482;2023-02-20T00:16:21;100652.03;;;3.81;100.00
35519;BME280;21627;48.216;16.482;2023-02-20T00:18:48;100653.47;;;3.74;100.00
35519;BME280;21627;48.216;16.482;2023-02-20T00:21:15;100655.34;;;3.78;100.00
35519;BME280;21627;48.216;16.482;2023-02-20T00:23:43;100661.97;;;3.73;100.00
35519;BME280;21627;48.216;16.482;2023-02-20T00:26:13;100649.38;;;3.58;100.00
35519;BME280;21627;48.216;16.482;2023-02-20T00:28:42;100655.28;;;3.57;100.00
35519;BME280;21627;48.216;16.482;2023-02-20T00:31:15;100671.78;;;3.64;100.00
35519;BME280;21627;48.216;16.482;2023-02-20T00:33:42;100663.16;;;3.62;100.00
35519;BME280;21627;48.216;16.482;2023-02-20T00:36:18;100667.50;;;3.63;100.00
35519;BME280;21627;48.216;16.482;2023-02-20T00:38:48;100656.16;;;3.58;100.00
35519;BME280;21627;48.216;16.482;2023-02-20T00:41:15;100669.31;;;3.65;100.00
35519;BME280;21627;48.216;16.482;2023-02-20T00:43:44;100673.59;;;3.66;100.00
35519;BME280;21627;48.216;16.482;2023-02-20T00:46:13;100672.84;;;3.69;100.00
35519;BME280;21627;48.216;16.482;2023-02-20T00:48:42;100664.97;;;3.64;100.00
35519;BME280;21627;48.216;16.482;2023-02-20T00:51:09;100677.16;;;3.70;100.00
35519;BME280;21627;48.216;16.482;2023-02-20T00:53:37;100668.69;;;3.71;100.00
35519;BME280;21627;48.216;16.482;2023-02-20T00:56:04;100664.31;;;3.68;100.00
35519;BME280;21627;48.216;16.482;2023-02-20T00:58:35;100670.22;;;3.67;100.00
35519;BME280;21627;48.216;16.482;2023-02-20T01:01:02;100665.09;;;3.67;100.00
35519;BME280;21627;48.216;16.482;2023-02-20T01:03:33;100661.47;;;3.62;100.00
35519;BME280;21627;48.216;16.482;2023-02-20T01:06:00;100651.94;;;3.58;100.00
35519;BME280;21627;48.216;16.482;2023-02-20T01:08:27;100664.13;;;3.64;100.00
35519;BME280;21627;48.216;16.482;2023-02-20T01:10:55;100656.31;;;3.61;100.00
35519;BME280;21627;48.216;16.482;2023-02-20T01:13:22;100647.50;;;3.54;100.00
35519;BME280;21627;48.216;16.482;2023-02-20T01:15:49;100661.28;;;3.58;100.00
35519;BME280;21627;48.216;16.482;2023-02-20T01:18:20;100652.53;;;3.53;100.00
35519;BME280;21627;48.216;16.482;2023-02-20T01:20:50;100663.13;;;3.60;100.00
35519;BME280;21627;48.216;16.482;2023-02-20T01:23:17;100650.88;;;3.53;100.00
35519;BME280;21627;48.216;16.482;2023-02-20T01:25:44;100662.09;;;3.57;100.00
35519;BME280;21627;48.216;16.482;2023-02-20T01:28:11;100663.78;;;3.56;100.00
35519;BME280;21627;48.216;16.482;2023-02-20T01:30:39;100652.53;;;3.53;100.00
35519;BME280;21627;48.216;16.482;2023-02-20T01:33:06;100653.22;;;3.49;100.00
35519;BME280;21627;48.216;16.482;2023-02-20T01:35:34;100647.31;;;3.50;100.00
35519;BME280;21627;48.216;16.482;2023-02-20T01:38:05;100655.28;;;3.57;100.00
35519;BME280;21627;48.216;16.482;2023-02-20T01:40:33;100651.94;;;3.58;100.00
35519;BME280;21627;48.216;16.482;2023-02-20T01:43:02;100654.50;;;3.58;100.00
35519;BME280;21627;48.216;16.482;2023-02-20T01:45:38;100643.25;;;3.55;100.00
35519;BME280;21627;48.216;16.482;2023-02-20T01:48:24;100659.66;;;3.60;100.00
35519;BME280;21627;48.216;16.482;2023-02-20T01:50:56;100659.53;;;3.57;100.00
35519;BME280;21627;48.216;16.482;2023-02-20T01:53:27;100659.53;;;3.57;100.00
35519;BME280;21627;48.216;16.482;2023-02-20T01:56:01;100658.69;;;3.56;100.00
35519;BME280;21627;48.216;16.482;2023-02-20T01:58:42;100667.28;;;3.58;100.00
35519;BME280;21627;48.216;16.482;2023-02-20T02:01:15;100649.06;;;3.51;100.00
35519;BME280;21627;48.216;16.482;2023-02-20T02:03:46;100650.94;;;3.55;100.00
35519;BME280;21627;48.216;16.482;2023-02-20T02:06:15;100643.88;;;3.49;100.00
35519;BME280;21627;48.216;16.482;2023-02-20T02:08:44;100656.97;;;3.57;100.00
35519;BME280;21627;48.216;16.482;2023-02-20T02:11:17;100657.06;;;3.58;100.00
35519;BME280;21627;48.216;16.482;2023-02-20T02:13:44;100649.06;;;3.51;100.00
35519;BME280;21627;48.216;16.482;2023-02-20T02:36:47;100651.34;;;3.44;100.00
35519;BME280;21627;48.216;16.482;2023-02-20T02:48:39;100658.22;;;3.45;100.00
35519;BME280;21627;48.216;16.482;2023-02-20T02:51:23;100650.22;;;3.38;100.00
35519;BME280;21627;48.216;16.482;2023-02-20T02:54:25;100658.69;;;3.37;100.00
35519;BME280;21627;48.216;16.482;2023-02-20T02:57:24;100669.31;;;3.46;100.00
35519;BME280;21627;48.216;16.482;2023-02-20T03:00:04;100664.00;;;3.41;100.00
35519;BME280;21627;48.216;16.482;2023-02-20T03:05:12;100673.69;;;3.49;100.00
35519;BME280;21627;48.216;16.482;2023-02-20T03:07:43;100667.72;;;3.48;100.00
35519;BME280;21627;48.216;16.482;2023-02-20T03:10:15;100664.25;;;3.47;100.00
35519;BME280;21627;48.216;16.482;2023-02-20T03:12:49;100681.59;;;3.55;100.00
35519;BME280;21627;48.216;16.482;2023-02-20T03:15:37;100665.41;;;3.54;100.00
35519;BME280;21627;48.216;16.482;2023-02-20T03:18:34;100661.97;;;3.54;100.00
35519;BME280;21627;48.216;16.482;2023-02-20T03:21:17;100646.34;;;3.47;100.00
35519;BME280;21627;48.216;16.482;2023-02-20T03:23:56;100648.16;;;3.50;100.00
35519;BME280;21627;48.216;16.482;2023-02-20T03:26:33;100649.84;;;3.50;100.00
35519;BME280;21627;48.216;16.482;2023-02-20T03:29:29;100651.63;;;3.51;100.00
35519;BME280;21627;48.216;16.482;2023-02-20T03:32:07;100652.41;;;3.50;100.00
35519;BME280;21627;48.216;16.482;2023-02-20T03:34:56;100637.56;;;3.41;100.00
35519;BME280;21627;48.216;16.482;2023-02-20T03:37:43;100648.13;;;3.49;100.00
35519;BME280;21627;48.216;16.482;2023-02-20T03:40:30;100642.28;;;3.32;100.00
35519;BME280;21627;48.216;16.482;2023-02-20T03:43:19;100636.00;;;3.25;100.00
35519;BME280;21627;48.216;16.482;2023-02-20T03:46:05;100657.47;;;3.29;100.00
35519;BME280;21627;48.216;16.482;2023-02-20T03:48:56;100644.28;;;3.19;100.00
35519;BME280;21627;48.216;16.482;2023-02-20T03:51:24;100646.94;;;3.21;100.00
35519;BME280;21627;48.216;16.482;2023-02-20T03:53:52;100653.50;;;3.16;100.00
35519;BME280;21627;48.216;16.482;2023-02-20T03:56:32;100641.41;;;3.12;100.00
35519;BME280;21627;48.216;16.482;2023-02-20T03:59:15;100674.09;;;3.19;100.00
35519;BME280;21627;48.216;16.482;2023-02-20T04:01:47;100638.84;;;3.12;100.00
35519;BME280;21627;48.216;16.482;2023-02-20T04:04:22;100656.06;;;3.16;100.00
35519;BME280;21627;48.216;16.482;2023-02-20T04:06:55;100659.63;;;3.19;100.00
35519;BME280;21627;48.216;16.482;2023-02-20T04:09:27;100638.91;;;3.13;100.00
35519;BME280;21627;48.216;16.482;2023-02-20T04:12:07;100647.47;;;3.14;100.00
35519;BME280;21627;48.216;16.482;2023-02-20T04:14:38;100627.84;;;3.13;100.00
35519;BME280;21627;48.216;16.482;2023-02-20T04:17:12;100651.09;;;3.19;100.00
35519;BME280;21627;48.216;16.482;2023-02-20T04:19:41;100634.06;;;3.19;100.00
35519;BME280;21627;48.216;16.482;2023-02-20T04:22:16;100630.84;;;3.04;100.00
35519;BME280;21627;48.216;16.482;2023-02-20T04:25:00;100645.31;;;3.03;100.00
35519;BME280;21627;48.216;16.482;2023-02-20T04:27:29;100627.16;;;2.97;100.00
35519;BME280;21627;48.216;16.482;2023-02-20T04:29:57;100616.13;;;2.98;100.00
35519;BME280;21627;48.216;16.482;2023-02-20T04:32:24;100619.22;;;3.11;100.00
35519;BME280;21627;48.216;16.482;2023-02-20T04:34:51;100611.00;;;2.98;100.00
35519;BME280;21627;48.216;16.482;2023-02-20T04:37:20;100614.44;;;2.99;100.00
35519;BME280;21627;48.216;16.482;2023-02-20T04:39:47;100628.75;;;2.95;100.00
35519;BME280;21627;48.216;16.482;2023-02-20T04:42:14;100620.94;;;2.92;100.00
35519;BME280;21627;48.216;16.482;2023-02-20T04:44:42;100636.34;;;2.94;100.00
35519;BME280;21627;48.216;16.482;2023-02-20T04:47:15;100646.56;;;2.94;100.00
35519;BME280;21627;48.216;16.482;2023-02-20T04:49:43;100640.50;;;2.92;100.00
35519;BME280;21627;48.216;16.482;2023-02-20T04:52:10;100646.34;;;2.89;100.00
35519;BME280;21627;48.216;16.482;2023-02-20T04:54:37;100638.81;;;2.92;100.00
35519;BME280;21627;48.216;16.482;2023-02-20T04:57:04;100625.56;;;2.81;100.00
35519;BME280;21627;48.216;16.482;2023-02-20T04:59:32;100625.91;;;2.89;100.00
35519;BME280;21627;48.216;16.482;2023-02-20T05:01:59;100616.56;;;2.90;100.00
35519;BME280;21627;48.216;16.482;2023-02-20T05:04:28;100626.06;;;2.92;100.00
35519;BME280;21627;48.216;16.482;2023-02-20T05:06:56;100622.50;;;2.89;100.00
35519;BME280;21627;48.216;16.482;2023-02-20T05:09:29;100615.78;;;2.91;100.00
35519;BME280;21627;48.216;16.482;2023-02-20T05:12:00;100616.88;;;2.96;100.00
35519;BME280;21627;48.216;16.482;2023-02-20T05:14:28;100608.13;;;2.91;100.00
35519;BME280;21627;48.216;16.482;2023-02-20T05:16:55;100609.72;;;2.89;100.00
35519;BME280;21627;48.216;16.482;2023-02-20T05:19:23;100608.00;;;2.88;100.00
35519;BME280;21627;48.216;16.482;2023-02-20T05:21:50;100615.84;;;2.92;100.00
35519;BME280;21627;48.216;16.482;2023-02-20T05:24:36;100611.41;;;2.88;100.00
35519;BME280;21627;48.216;16.482;2023-02-20T05:27:03;100618.78;;;2.82;100.00
35519;BME280;21627;48.216;16.482;2023-02-20T05:29:30;100593.72;;;2.73;100.00
35519;BME280;21627;48.216;16.482;2023-02-20T05:31:57;100614.63;;;2.84;100.00
35519;BME280;21627;48.216;16.482;2023-02-20T05:34:24;100605.97;;;2.80;100.00
35519;BME280;21627;48.216;16.482;2023-02-20T05:36:53;100613.75;;;2.84;100.00
35519;BME280;21627;48.216;16.482;2023-02-20T05:39:23;100601.81;;;2.83;100.00
35519;BME280;21627;48.216;16.482;2023-02-20T05:41:50;100615.50;;;2.85;100.00
35519;BME280;21627;48.216;16.482;2023-02-20T05:44:17;100609.25;;;2.78;100.00
35519;BME280;21627;48.216;16.482;2023-02-20T05:46:44;100620.47;;;2.81;100.00
35519;BME280;21627;48.216;16.482;2023-02-20T05:49:12;100626.59;;;2.85;100.00
35519;BME280;21627;48.216;16.482;2023-02-20T05:51:39;100633.44;;;2.86;100.00
35519;BME280;21627;48.216;16.482;2023-02-20T05:54:06;100627.72;;;2.92;100.00
35519;BME280;21627;48.216;16.482;2023-02-20T05:56:33;100625.91;;;2.89;100.00
35519;BME280;21627;48.216;16.482;2023-02-20T05:59:03;100628.59;;;2.92;100.00
35519;BME280;21627;48.216;16.482;2023-02-20T06:01:31;100614.75;;;2.87;100.00
35519;BME280;21627;48.216;16.482;2023-02-20T06:03:58;100620.75;;;2.88;100.00
35519;BME280;21627;48.216;16.482;2023-02-20T06:06:41;100627.00;;;2.94;100.00
35519;BME280;21627;48.216;16.482;2023-02-20T06:09:12;100632.78;;;3.10;100.00
35519;BME280;21627;48.216;16.482;2023-02-20T06:11:52;100635.09;;;3.03;100.00
35519;BME280;21627;48.216;16.482;2023-02-20T06:14:23;100630.06;;;3.05;100.00
35519;BME280;21627;48.216;16.482;2023-02-20T06:16:51;100634.34;;;3.06;100.00
35519;BME280;21627;48.216;16.482;2023-02-20T06:19:21;100630.97;;;3.07;100.00
35519;BME280;21627;48.216;16.482;2023-02-20T06:21:53;100624.72;;;3.00;100.00
35519;BME280;21627;48.216;16.482;2023-02-20T06:24:24;100634.94;;;3.00;100.00
35519;BME280;21627;48.216;16.482;2023-02-20T06:26:52;100624.72;;;3.00;100.00
35519;BME280;21627;48.216;16.482;2023-02-20T06:29:19;100619.34;;;2.94;100.00
35519;BME280;21627;48.216;16.482;2023-02-20T06:31:47;100633.41;;;3.04;100.00
35519;BME280;21627;48.216;16.482;2023-02-20T06:34:15;100628.81;;;2.97;100.00
35519;BME280;21627;48.216;16.482;2023-02-20T06:36:42;100646.38;;;3.09;100.00
35519;BME280;21627;48.216;16.482;2023-02-20T06:39:13;100622.91;;;2.98;100.00
35519;BME280;21627;48.216;16.482;2023-02-20T06:41:41;100628.91;;;2.98;100.00
35519;BME280;21627;48.216;16.482;2023-02-20T06:44:12;100637.84;;;3.08;100.00
35519;BME280;21627;48.216;16.482;2023-02-20T06:46:39;100629.75;;;2.99;100.00
35519;BME280;21627;48.216;16.482;2023-02-20T06:49:06;100639.19;;;3.00;100.00
35519;BME280;21627;48.216;16.482;2023-02-20T06:51:33;100637.38;;;2.97;100.00
35519;BME280;21627;48.216;16.482;2023-02-20T06:54:02;100619.13;;;2.90;100.00
35519;BME280;21627;48.216;16.482;2023-02-20T06:56:33;100642.75;;;3.03;100.00
35519;BME280;21627;48.216;16.482;2023-02-20T06:59:06;100628.16;;;3.01;100.00
35519;BME280;21627;48.216;16.482;2023-02-20T07:01:41;100616.38;;;3.04;100.00
35519;BME280;21627;48.216;16.482;2023-02-20T07:04:25;100618.28;;;3.09;100.00
35519;BME280;21627;48.216;16.482;2023-02-20T07:06:56;100623.19;;;3.23;100.00
35519;BME280;21627;48.216;16.482;2023-02-20T07:09:24;100617.41;;;3.28;100.00
35519;BME280;21627;48.216;16.482;2023-02-20T07:11:53;100614.78;;;3.26;100.00
35519;BME280;21627;48.216;16.482;2023-02-20T07:14:21;100603.81;;;3.29;100.00
35519;BME280;21627;48.216;16.482;2023-02-20T07:16:52;100604.13;;;3.36;100.00
35519;BME280;21627;48.216;16.482;2023-02-20T07:19:19;100609.97;;;3.53;100.00
35519;BME280;21627;48.216;16.482;2023-02-20T07:21:46;100602.91;;;3.47;100.00
35519;BME280;21627;48.216;16.482;2023-02-20T07:24:14;100589.19;;;3.45;100.00
35519;BME280;21627;48.216;16.482;2023-02-20T07:26:41;100608.28;;;3.54;100.00
35519;BME280;21627;48.216;16.482;2023-02-20T07:29:08;100588.69;;;3.54;100.00
35519;BME280;21627;48.216;16.482;2023-02-20T07:31:36;100587.47;;;3.65;100.00
35519;BME280;21627;48.216;16.482;2023-02-20T07:34:05;100594.44;;;3.69;100.00
35519;BME280;21627;48.216;16.482;2023-02-20T07:36:32;100590.47;;;3.76;100.00
35519;BME280;21627;48.216;16.482;2023-02-20T07:39:01;100589.16;;;3.86;100.00
35519;BME280;21627;48.216;16.482;2023-02-20T07:41:30;100577.16;;;3.85;100.00
35519;BME280;21627;48.216;16.482;2023-02-20T07:44:03;100579.06;;;3.90;100.00
35519;BME280;21627;48.216;16.482;2023-02-20T07:46:30;100574.44;;;4.03;100.00
35519;BME280;21627;48.216;16.482;2023-02-20T07:49:04;100575.50;;;4.08;100.00
35519;BME280;21627;48.216;16.482;2023-02-20T07:51:32;100567.97;;;4.11;100.00
35519;BME280;21627;48.216;16.482;2023-02-20T07:53:59;100558.34;;;4.05;100.00
35519;BME280;21627;48.216;16.482;2023-02-20T07:56:27;100574.28;;;4.21;100.00
35519;BME280;21627;48.216;16.482;2023-02-20T07:58:54;100571.16;;;4.28;100.00
35519;BME280;21627;48.216;16.482;2023-02-20T08:01:22;100570.94;;;4.44;100.00
35519;BME280;21627;48.216;16.482;2023-02-20T08:03:49;100566.97;;;4.52;100.00
35519;BME280;21627;48.216;16.482;2023-02-20T08:06:18;100571.03;;;4.70;100.00
35519;BME280;21627;48.216;16.482;2023-02-20T08:08:50;100575.00;;;4.84;100.00
35519;BME280;21627;48.216;16.482;2023-02-20T08:11:19;100569.22;;;4.90;100.00
35519;BME280;21627;48.216;16.482;2023-02-20T08:13:47;100577.38;;;5.04;100.00
35519;BME280;21627;48.216;16.482;2023-02-20T08:16:15;100573.69;;;5.19;100.00
35519;BME280;21627;48.216;16.482;2023-02-20T08:18:43;100586.44;;;5.43;100.00
35519;BME280;21627;48.216;16.482;2023-02-20T08:21:10;100589.78;;;5.67;100.00
35519;BME280;21627;48.216;16.482;2023-02-20T08:23:37;100560.91;;;5.72;100.00
35519;BME280;21627;48.216;16.482;2023-02-20T08:26:08;100568.31;;;6.16;100.00
35519;BME280;21627;48.216;16.482;2023-02-20T08:28:35;100562.22;;;6.41;100.00
35519;BME280;21627;48.216;16.482;2023-02-20T08:31:02;100548.59;;;6.74;100.00
35519;BME280;21627;48.216;16.482;2023-02-20T08:33:33;100558.44;;;6.88;100.00
35519;BME280;21627;48.216;16.482;2023-02-20T08:36:00;100541.88;;;7.10;100.00
35519;BME280;21627;48.216;16.482;2023-02-20T08:38:38;100530.25;;;7.23;100.00
35519;BME280;21627;48.216;16.482;2023-02-20T08:41:07;100544.28;;;7.71;100.00
35519;BME280;21627;48.216;16.482;2023-02-20T08:43:37;100533.66;;;7.92;100.00
35519;BME280;21627;48.216;16.482;2023-02-20T08:46:07;100534.28;;;8.21;100.00
35519;BME280;21627;48.216;16.482;2023-02-20T08:48:35;100543.25;;;8.37;100.00
35519;BME280;21627;48.216;16.482;2023-02-20T08:51:04;100532.34;;;8.49;100.00
35519;BME280;21627;48.216;16.482;2023-02-20T08:53:33;100518.78;;;8.57;100.00
35519;BME280;21627;48.216;16.482;2023-02-20T08:56:01;100530.16;;;8.69;100.00
35519;BME280;21627;48.216;16.482;2023-02-20T08:58:28;100526.22;;;8.84;100.00
35519;BME280;21627;48.216;16.482;2023-02-20T09:00:58;100528.94;;;8.92;100.00
35519;BME280;21627;48.216;16.482;2023-02-20T09:03:28;100526.56;;;9.04;100.00
35519;BME280;21627;48.216;16.482;2023-02-20T09:05:56;100539.09;;;9.30;100.00
35519;BME280;21627;48.216;16.482;2023-02-20T09:08:23;100521.16;;;9.38;100.00
35519;BME280;21627;48.216;16.482;2023-02-20T09:10:50;100516.38;;;9.61;100.00
35519;BME280;21627;48.216;16.482;2023-02-20T09:13:17;100517.34;;;9.69;100.00
35519;BME280;21627;48.216;16.482;2023-02-20T09:15:45;100516.59;;;9.76;100.00
35519;BME280;21627;48.216;16.482;2023-02-20T09:18:13;100513.50;;;10.00;100.00
35519;BME280;21627;48.216;16.482;2023-02-20T09:20:41;100522.38;;;10.16;100.00
35519;BME280;21627;48.216;16.482;2023-02-20T09:23:09;100507.84;;;10.26;99.18
35519;BME280;21627;48.216;16.482;2023-02-20T09:25:36;100497.47;;;10.21;99.27
35519;BME280;21627;48.216;16.482;2023-02-20T09:28:04;100514.00;;;10.32;93.28
35519;BME280;21627;48.216;16.482;2023-02-20T09:30:31;100499.94;;;10.15;96.64
35519;BME280;21627;48.216;16.482;2023-02-20T09:32:59;100512.94;;;10.19;96.21
35519;BME280;21627;48.216;16.482;2023-02-20T09:35:29;100508.69;;;10.23;95.66
35519;BME280;21627;48.216;16.482;2023-02-20T09:37:56;100484.72;;;10.33;92.99
35519;BME280;21627;48.216;16.482;2023-02-20T09:40:30;100480.44;;;10.37;92.91
35519;BME280;21627;48.216;16.482;2023-02-20T09:43:29;100491.91;;;10.57;90.18
35519;BME280;21627;48.216;16.482;2023-02-20T09:46:16;100473.03;;;10.65;87.08
35519;BME280;21627;48.216;16.482;2023-02-20T09:51:44;100488.50;;;10.61;88.98
35519;BME280;21627;48.216;16.482;2023-02-20T09:54:35;100468.47;;;10.45;87.04
35519;BME280;21627;48.216;16.482;2023-02-20T09:57:21;100480.41;;;10.34;90.04
35519;BME280;21627;48.216;16.482;2023-02-20T10:00:00;100475.13;;;10.26;92.26
35519;BME280;21627;48.216;16.482;2023-02-20T10:02:38;100462.97;;;10.19;88.33
35519;BME280;21627;48.216;16.482;2023-02-20T10:05:20;100476.91;;;10.29;86.81
35519;BME280;21627;48.216;16.482;2023-02-20T10:07:49;100469.91;;;10.23;91.23
35519;BME280;21627;48.216;16.482;2023-02-20T10:10:28;100456.09;;;10.23;90.42
35519;BME280;21627;48.216;16.482;2023-02-20T10:13:35;100465.72;;;10.28;90.03
35519;BME280;21627;48.216;16.482;2023-02-20T10:16:59;100456.34;;;10.39;88.93
35519;BME280;21627;48.216;16.482;2023-02-20T10:22:17;100456.56;;;10.58;87.53
35519;BME280;21627;48.216;16.482;2023-02-20T10:30:38;100464.78;;;10.99;83.81
35519;BME280;21627;48.216;16.482;2023-02-20T10:36:25;100449.44;;;11.19;78.83
35519;BME280;21627;48.216;16.482;2023-02-20T10:39:08;100445.09;;;11.20;80.29
35519;BME280;21627;48.216;16.482;2023-02-20T10:44:57;100441.69;;;11.25;76.48
35519;BME280;21627;48.216;16.482;2023-02-20T10:47:48;100428.66;;;11.13;77.61
35519;BME280;21627;48.216;16.482;2023-02-20T11:01:31;100405.09;;;11.97;75.79
35519;BME280;21627;48.216;16.482;2023-02-20T11:04:14;100411.25;;;12.25;72.97
35519;BME280;21627;48.216;16.482;2023-02-20T11:09:34;100391.50;;;13.01;68.77
35519;BME280;21627;48.216;16.482;2023-02-20T11:12:01;100382.84;;;13.25;67.98
35519;BME280;21627;48.216;16.482;2023-02-20T11:14:43;100370.75;;;13.33;65.96
35519;BME280;21627;48.216;16.482;2023-02-20T11:17:16;100376.81;;;13.28;63.87
35519;BME280;21627;48.216;16.482;2023-02-20T11:19:54;100372.44;;;13.25;64.69
35519;BME280;21627;48.216;16.482;2023-02-20T11:22:58;100354.28;;;13.34;64.71
35519;BME280;21627;48.216;16.482;2023-02-20T11:25:36;100360.34;;;13.21;62.01
35519;BME280;21627;48.216;16.482;2023-02-20T11:30:45;100335.25;;;12.71;64.95
35519;BME280;21627;48.216;16.482;2023-02-20T11:33:22;100343.88;;;12.44;64.58
35519;BME280;21627;48.216;16.482;2023-02-20T11:35:54;100347.28;;;12.23;65.66
35519;BME280;21627;48.216;16.482;2023-02-20T11:46:18;100334.25;;;12.01;65.11
35519;BME280;21627;48.216;16.482;2023-02-20T11:51:41;100342.03;;;12.01;65.52
35519;BME280;21627;48.216;16.482;2023-02-20T11:54:23;100296.13;;;11.79;65.42
35519;BME280;21627;48.216;16.482;2023-02-20T11:59:47;100319.56;;;11.96;66.06
35519;BME280;21627;48.216;16.482;2023-02-20T12:05:05;100308.38;;;12.13;64.95
35519;BME280;21627;48.216;16.482;2023-02-20T12:07:40;100302.31;;;12.13;64.64
35519;BME280;21627;48.216;16.482;2023-02-20T12:10:45;100303.19;;;12.10;63.83
35519;BME280;21627;48.216;16.482;2023-02-20T12:13:16;100284.19;;;12.18;62.95
35519;BME280;21627;48.216;16.482;2023-02-20T12:15:53;100260.00;;;12.37;63.59
35519;BME280;21627;48.216;16.482;2023-02-20T12:18:53;100255.69;;;12.77;58.80
35519;BME280;21627;48.216;16.482;2023-02-20T12:22:06;100272.91;;;13.43;58.65
35519;BME280;21627;48.216;16.482;2023-02-20T12:31:08;100228.31;;;14.18;54.56
35519;BME280;21627;48.216;16.482;2023-02-20T12:37:31;100252.59;;;14.17;53.29
35519;BME280;21627;48.216;16.482;2023-02-20T12:43:45;100245.06;;;13.71;54.06
35519;BME280;21627;48.216;16.482;2023-02-20T12:49:49;100251.22;;;13.42;55.15
35519;BME280;21627;48.216;16.482;2023-02-20T13:01:35;100221.84;;;13.31;55.14
35519;BME280;21627;48.216;16.482;2023-02-20T13:04:43;100221.88;;;13.20;54.36
35519;BME280;21627;48.216;16.482;2023-02-20T13:07:34;100224.47;;;13.27;56.16
35519;BME280;21627;48.216;16.482;2023-02-20T13:10:32;100232.22;;;13.25;55.50
35519;BME280;21627;48.216;16.482;2023-02-20T13:13:01;100224.41;;;13.37;55.32
35519;BME280;21627;48.216;16.482;2023-02-20T13:20:38;100211.19;;;13.87;52.70
35519;BME280;21627;48.216;16.482;2023-02-20T13:25:47;100191.00;;;14.24;51.40
35519;BME280;21627;48.216;16.482;2023-02-20T13:28:41;100198.56;;;14.53;51.08
35519;BME280;21627;48.216;16.482;2023-02-20T13:31:23;100200.34;;;14.45;49.77
35519;BME280;21627;48.216;16.482;2023-02-20T13:36:36;100193.53;;;14.28;50.13
35519;BME280;21627;48.216;16.482;2023-02-20T13:49:58;100189.75;;;13.49;51.56
35519;BME280;21627;48.216;16.482;2023-02-20T14:03:30;100183.69;;;13.47;52.86
35519;BME280;21627;48.216;16.482;2023-02-20T14:06:11;100176.78;;;13.41;51.55
35519;BME280;21627;48.216;16.482;2023-02-20T14:08:46;100162.94;;;13.41;54.12
35519;BME280;21627;48.216;16.482;2023-02-20T14:11:35;100175.91;;;13.49;52.66
35519;BME280;21627;48.216;16.482;2023-02-20T14:14:29;100156.00;;;13.41;51.65
35519;BME280;21627;48.216;16.482;2023-02-20T14:17:18;100149.88;;;13.50;51.74
35519;BME280;21627;48.216;16.482;2023-02-20T14:19:57;100171.56;;;13.51;51.83
35519;BME280;21627;48.216;16.482;2023-02-20T14:22:40;100164.69;;;13.34;51.96
35519;BME280;21627;48.216;16.482;2023-02-20T14:27:39;100149.16;;;13.20;51.96
35519;BME280;21627;48.216;16.482;2023-02-20T14:30:14;100143.91;;;13.25;51.58
35519;BME280;21627;48.216;16.482;2023-02-20T14:32:45;100132.59;;;13.51;51.82
35519;BME280;21627;48.216;16.482;2023-02-20T14:40:56;100146.16;;;13.93;48.69
35519;BME280;21627;48.216;16.482;2023-02-20T14:43:27;100128.94;;;13.81;49.26
35519;BME280;21627;48.216;16.482;2023-02-20T14:46:05;100132.44;;;13.72;49.69
35519;BME280;21627;48.216;16.482;2023-02-20T14:48:36;100122.16;;;13.57;49.51
35519;BME280;21627;48.216;16.482;2023-02-20T14:51:22;100110.84;;;13.64;48.99
35519;BME280;21627;48.216;16.482;2023-02-20T14:54:22;100110.94;;;13.52;49.52
35519;BME280;21627;48.216;16.482;2023-02-20T14:56:51;100093.69;;;13.37;49.48
35519;BME280;21627;48.216;16.482;2023-02-20T14:59:32;100101.53;;;13.28;49.61
35519;BME280;21627;48.216;16.482;2023-02-20T15:02:23;100106.72;;;13.28;49.27
35519;BME280;21627;48.216;16.482;2023-02-20T15:05:07;100086.78;;;13.25;50.30
35519;BME280;21627;48.216;16.482;2023-02-20T15:07:38;100099.81;;;13.19;50.91
35519;BME280;21627;48.216;16.482;2023-02-20T15:10:41;100098.06;;;13.23;51.04
35519;BME280;21627;48.216;16.482;2023-02-20T15:13:15;100086.00;;;13.14;50.79
35519;BME280;21627;48.216;16.482;2023-02-20T15:15:48;100088.66;;;13.02;50.89
35519;BME280;21627;48.216;16.482;2023-02-20T15:18:36;100086.91;;;13.07;50.86
35519;BME280;21627;48.216;16.482;2023-02-20T15:21:05;100082.56;;;13.10;50.19
35519;BME280;21627;48.216;16.482;2023-02-20T15:23:38;100079.09;;;13.10;50.82
35519;BME280;21627;48.216;16.482;2023-02-20T15:26:30;100082.59;;;13.04;51.12
35519;BME280;21627;48.216;16.482;2023-02-20T15:34:43;100059.28;;;12.87;51.48
35519;BME280;21627;48.216;16.482;2023-02-20T15:37:32;100050.66;;;12.88;51.78
35519;BME280;21627;48.216;16.482;2023-02-20T15:40:21;100067.94;;;12.89;52.28
35519;BME280;21627;48.216;16.482;2023-02-20T15:42:49;100054.94;;;12.97;50.43
35519;BME280;21627;48.216;16.482;2023-02-20T15:45:25;100053.22;;;12.94;51.05
35519;BME280;21627;48.216;16.482;2023-02-20T15:47:54;100044.63;;;12.88;51.66
35519;BME280;21627;48.216;16.482;2023-02-20T15:50:22;100023.91;;;12.71;51.62